Flight Track Log - Related Links

Times and Time Zones

All times are in EDT time to prevent confusion due to time zone crossing. See the ASQ4209 flight status page for this flight to view local times or setup timezone preferences in your user account.

Time Position Orientation Groundspeed Altitude Reporting Facility
EDT Latitude Longitude Course Direction KTS MPH feet Rate Location/Type
Mon 01:28:01 PM 29.9617 -95.3436 90° East 145 167 700  Level Houston Center
Mon 01:29:03 PM 29.9289 -95.2958 128° Southeast 192 221 2,600 1,624 Climbing Houston Center
Mon 01:29:26 PM 29.9136 -95.2769 133° Southeast 224 258 3,000 1,742 Climbing Houston Center
Mon 01:30:05 PM 29.8844 -95.2333 128° Southeast 232 267 4,400 2,418 Climbing Houston Center
Mon 01:30:33 PM 29.8603 -95.1992 129° Southeast 270 311 5,700 2,323 Climbing Houston Center
Mon 01:31:00 PM 29.9834 -94.8853 90° East  Level FlightAware Approximate
Mon 01:31:07 PM 29.8397 -95.1633 123° Southeast 272 313 6,800  Level Houston Center
Mon 01:31:28 PM 29.8431 -95.1267 84° East 290 334 7,700 2,226 Climbing Houston Center
Mon 01:32:00 PM 29.9834 -94.7733 90° East  Level FlightAware Approximate
Mon 01:32:09 PM 29.8550 -95.0717 76° East 288 331 9,100  Level Houston Center
Mon 01:33:00 PM 29.9833 -94.6613 90° East  Level FlightAware Approximate
Mon 01:33:11 PM 29.8725 -94.9775 78° East 299 344 10,300  Level Houston Center
Mon 01:34:13 PM 29.8928 -94.8672 78° East 344 396 11,200 1,113 Climbing Houston Center
Mon 01:35:15 PM 29.9139 -94.7536 78° East 360 414 12,600 1,355 Climbing Houston Center
Mon 01:36:17 PM 29.9397 -94.6147 78° East 369 425 14,000 1,200 Climbing Houston Center
Mon 01:37:20 PM 29.9608 -94.4969 78° East 375 432 15,100 1,008 Climbing Houston Center
Mon 01:38:22 PM 29.9842 -94.3672 78° East 388 447 16,100 919 Climbing Houston Center
Mon 01:39:24 PM 30.0036 -94.2444 80° East 391 450 17,000 871 Climbing Houston Center
Mon 01:40:26 PM 30.0197 -94.1181 82° East 400 460 17,900 919 Climbing Houston Center
Mon 01:41:28 PM 30.0353 -93.9897 82° East 406 467 18,900 532 Climbing Houston Center
Mon 01:42:30 PM 30.0522 -93.8572 82° East 421 484 19,000 48 Climbing Houston Center
Mon 01:43:32 PM 30.0719 -93.6906 82° East 440 506 19,000  Level Houston Center
Mon 01:44:35 PM 30.0881 -93.5508 82° East 445 512 19,000  Level Houston Center
Mon 01:45:37 PM 30.1042 -93.4119 82° East 446 513 19,000  Level Houston Center
Mon 01:46:39 PM 30.1206 -93.2750 82° East 439 505 19,000  Level Houston Center
Mon 01:47:41 PM 30.1406 -93.1069 82° East 444 511 19,000  Level Houston Center
Mon 01:48:43 PM 30.1678 -92.9675 77° East 448 516 19,000  Level Houston Center
Mon 01:49:45 PM 30.1944 -92.8317 77° East 439 505 19,000  Level Houston Center
Mon 01:50:47 PM 30.2208 -92.6947 77° East 439 505 19,000  Level Houston Center
Mon 01:51:49 PM 30.2481 -92.5578 77° East 439 505 19,000  Level Houston Center
Mon 01:52:51 PM 30.2736 -92.4192 78° East 443 510 19,000  Level Houston Center
Mon 01:53:54 PM 30.3108 -92.2731 74° East 435 501 19,000  Level Houston Center
Mon 01:54:56 PM 30.3625 -92.1511 64° Northeast 438 504 19,000 -629 Level Houston Center
Mon 01:55:58 PM 30.3872 -91.9828 80° East 443 510 17,700 -2,177 Descending Houston Center
Mon 01:57:00 PM 30.4072 -91.8497 80° East 425 489 14,500 -2,903 Descending Houston Center
Mon 01:58:02 PM 30.4403 -91.7286 72° East 399 459 11,700 -1,984 Descending Houston Center
Mon 01:59:04 PM 30.4683 -91.6247 73° East 363 418 10,400 -1,306 Descending Houston Center
Mon 02:00:06 PM 30.4947 -91.5278 72° East 316 364 9,000 -1,742 Descending Houston Center
Mon 02:01:08 PM 30.5250 -91.4214 72° East 296 341 6,800 -1,887 Descending Houston Center
Mon 02:02:10 PM 30.5486 -91.3369 72° East 288 331 5,100 -1,645 Descending Houston Center

Login

Don't have an account? Register now (free) for customized features, flight alerts, and more!